sensor_id;sensor_type;location;lat;lon;timestamp;P1;durP1;ratioP1;P2;durP2;ratioP2
10092;SDS011;5085;48.092;11.484;2022-10-22T00:00:13;4.57;;;0.65;;
10092;SDS011;5085;48.092;11.484;2022-10-22T00:02:41;1.98;;;0.55;;
10092;SDS011;5085;48.092;11.484;2022-10-22T00:05:08;9.70;;;1.08;;
10092;SDS011;5085;48.092;11.484;2022-10-22T00:07:34;1.60;;;0.88;;
10092;SDS011;5085;48.092;11.484;2022-10-22T00:10:00;1.52;;;0.55;;
10092;SDS011;5085;48.092;11.484;2022-10-22T00:12:27;2.40;;;0.77;;
10092;SDS011;5085;48.092;11.484;2022-10-22T00:14:53;1.38;;;0.70;;
10092;SDS011;5085;48.092;11.484;2022-10-22T00:17:19;1.38;;;0.63;;
10092;SDS011;5085;48.092;11.484;2022-10-22T00:19:45;0.95;;;0.43;;
10092;SDS011;5085;48.092;11.484;2022-10-22T00:22:11;1.50;;;0.70;;
10092;SDS011;5085;48.092;11.484;2022-10-22T00:24:37;1.55;;;0.50;;
10092;SDS011;5085;48.092;11.484;2022-10-22T00:27:05;2.92;;;0.60;;
10092;SDS011;5085;48.092;11.484;2022-10-22T00:29:32;1.85;;;0.57;;
10092;SDS011;5085;48.092;11.484;2022-10-22T00:31:59;1.52;;;0.50;;
10092;SDS011;5085;48.092;11.484;2022-10-22T00:34:25;0.75;;;0.38;;
10092;SDS011;5085;48.092;11.484;2022-10-22T00:36:51;1.42;;;0.55;;
10092;SDS011;5085;48.092;11.484;2022-10-22T00:39:18;1.55;;;0.65;;
10092;SDS011;5085;48.092;11.484;2022-10-22T00:41:47;1.67;;;0.52;;
10092;SDS011;5085;48.092;11.484;2022-10-22T00:47:18;3.22;;;0.50;;
10092;SDS011;5085;48.092;11.484;2022-10-22T00:49:47;0.82;;;0.30;;
10092;SDS011;5085;48.092;11.484;2022-10-22T00:52:13;0.70;;;0.30;;
10092;SDS011;5085;48.092;11.484;2022-10-22T00:54:39;1.30;;;0.30;;
10092;SDS011;5085;48.092;11.484;2022-10-22T00:57:06;2.05;;;0.45;;
10092;SDS011;5085;48.092;11.484;2022-10-22T00:59:33;1.17;;;0.40;;
10092;SDS011;5085;48.092;11.484;2022-10-22T01:01:59;0.30;;;0.22;;
10092;SDS011;5085;48.092;11.484;2022-10-22T01:04:25;0.85;;;0.40;;
10092;SDS011;5085;48.092;11.484;2022-10-22T01:06:51;0.70;;;0.22;;
10092;SDS011;5085;48.092;11.484;2022-10-22T01:09:29;1.92;;;0.30;;
10092;SDS011;5085;48.092;11.484;2022-10-22T01:15:10;1.05;;;0.30;;
10092;SDS011;5085;48.092;11.484;2022-10-22T01:25:57;0.47;;;0.22;;
10092;SDS011;5085;48.092;11.484;2022-10-22T01:31:23;0.70;;;0.22;;
10092;SDS011;5085;48.092;11.484;2022-10-22T01:33:52;1.85;;;0.35;;
10092;SDS011;5085;48.092;11.484;2022-10-22T01:36:19;2.40;;;0.32;;
10092;SDS011;5085;48.092;11.484;2022-10-22T01:38:46;1.58;;;0.50;;
10092;SDS011;5085;48.092;11.484;2022-10-22T01:41:14;0.85;;;0.50;;
10092;SDS011;5085;48.092;11.484;2022-10-22T01:43:40;0.63;;;0.30;;
10092;SDS011;5085;48.092;11.484;2022-10-22T01:46:08;0.90;;;0.47;;
10092;SDS011;5085;48.092;11.484;2022-10-22T01:48:53;0.55;;;0.25;;
10092;SDS011;5085;48.092;11.484;2022-10-22T01:54:14;1.50;;;0.40;;
10092;SDS011;5085;48.092;11.484;2022-10-22T02:02:22;1.25;;;0.28;;
10092;SDS011;5085;48.092;11.484;2022-10-22T02:05:11;0.90;;;0.40;;
10092;SDS011;5085;48.092;11.484;2022-10-22T02:07:51;1.55;;;0.40;;
10092;SDS011;5085;48.092;11.484;2022-10-22T02:10:20;0.73;;;0.30;;
10092;SDS011;5085;48.092;11.484;2022-10-22T02:12:48;1.50;;;0.55;;
10092;SDS011;5085;48.092;11.484;2022-10-22T02:15:17;1.05;;;0.45;;
10092;SDS011;5085;48.092;11.484;2022-10-22T02:17:46;2.67;;;0.30;;
10092;SDS011;5085;48.092;11.484;2022-10-22T02:20:15;1.08;;;0.50;;
10092;SDS011;5085;48.092;11.484;2022-10-22T02:22:44;1.92;;;0.60;;
10092;SDS011;5085;48.092;11.484;2022-10-22T02:25:12;0.63;;;0.35;;
10092;SDS011;5085;48.092;11.484;2022-10-22T02:30:08;1.42;;;0.40;;
10092;SDS011;5085;48.092;11.484;2022-10-22T02:35:22;1.30;;;0.43;;
10092;SDS011;5085;48.092;11.484;2022-10-22T02:37:50;4.80;;;0.52;;
10092;SDS011;5085;48.092;11.484;2022-10-22T02:40:18;0.50;;;0.28;;
10092;SDS011;5085;48.092;11.484;2022-10-22T02:42:45;1.38;;;0.60;;
10092;SDS011;5085;48.092;11.484;2022-10-22T02:45:12;1.65;;;0.40;;
10092;SDS011;5085;48.092;11.484;2022-10-22T02:47:39;1.23;;;0.40;;
10092;SDS011;5085;48.092;11.484;2022-10-22T02:50:05;1.17;;;0.40;;
10092;SDS011;5085;48.092;11.484;2022-10-22T02:52:31;2.97;;;0.50;;
10092;SDS011;5085;48.092;11.484;2022-10-22T02:54:57;4.90;;;0.40;;
10092;SDS011;5085;48.092;11.484;2022-10-22T02:57:23;2.20;;;0.28;;
10092;SDS011;5085;48.092;11.484;2022-10-22T02:59:49;1.77;;;0.30;;
10092;SDS011;5085;48.092;11.484;2022-10-22T03:02:16;0.68;;;0.32;;
10092;SDS011;5085;48.092;11.484;2022-10-22T03:04:42;0.45;;;0.30;;
10092;SDS011;5085;48.092;11.484;2022-10-22T03:07:08;1.75;;;0.60;;
10092;SDS011;5085;48.092;11.484;2022-10-22T03:09:34;1.83;;;0.40;;
10092;SDS011;5085;48.092;11.484;2022-10-22T03:12:00;0.65;;;0.35;;
10092;SDS011;5085;48.092;11.484;2022-10-22T03:14:26;0.90;;;0.45;;
10092;SDS011;5085;48.092;11.484;2022-10-22T03:16:52;0.52;;;0.22;;
10092;SDS011;5085;48.092;11.484;2022-10-22T03:19:18;2.45;;;0.25;;
10092;SDS011;5085;48.092;11.484;2022-10-22T03:21:58;1.13;;;0.30;;
10092;SDS011;5085;48.092;11.484;2022-10-22T03:24:30;0.40;;;0.30;;
10092;SDS011;5085;48.092;11.484;2022-10-22T03:27:00;0.55;;;0.30;;
10092;SDS011;5085;48.092;11.484;2022-10-22T03:29:26;0.38;;;0.28;;
10092;SDS011;5085;48.092;11.484;2022-10-22T03:31:53;1.98;;;0.22;;
10092;SDS011;5085;48.092;11.484;2022-10-22T03:34:19;0.50;;;0.30;;
10092;SDS011;5085;48.092;11.484;2022-10-22T03:36:46;0.38;;;0.20;;
10092;SDS011;5085;48.092;11.484;2022-10-22T03:39:13;0.50;;;0.20;;
10092;SDS011;5085;48.092;11.484;2022-10-22T03:41:42;0.40;;;0.28;;
10092;SDS011;5085;48.092;11.484;2022-10-22T03:44:08;0.98;;;0.38;;
10092;SDS011;5085;48.092;11.484;2022-10-22T03:46:35;1.45;;;0.40;;
10092;SDS011;5085;48.092;11.484;2022-10-22T03:49:01;1.23;;;0.30;;
10092;SDS011;5085;48.092;11.484;2022-10-22T03:51:27;0.70;;;0.30;;
10092;SDS011;5085;48.092;11.484;2022-10-22T03:53:54;0.82;;;0.43;;
10092;SDS011;5085;48.092;11.484;2022-10-22T03:56:20;0.50;;;0.22;;
10092;SDS011;5085;48.092;11.484;2022-10-22T03:58:47;2.83;;;0.30;;
10092;SDS011;5085;48.092;11.484;2022-10-22T04:01:13;3.10;;;0.40;;
10092;SDS011;5085;48.092;11.484;2022-10-22T04:03:39;0.63;;;0.30;;
10092;SDS011;5085;48.092;11.484;2022-10-22T04:06:07;0.30;;;0.15;;
10092;SDS011;5085;48.092;11.484;2022-10-22T04:08:34;0.80;;;0.30;;
10092;SDS011;5085;48.092;11.484;2022-10-22T04:11:01;0.85;;;0.30;;
10092;SDS011;5085;48.092;11.484;2022-10-22T04:13:27;0.88;;;0.47;;
10092;SDS011;5085;48.092;11.484;2022-10-22T04:15:53;0.45;;;0.20;;
10092;SDS011;5085;48.092;11.484;2022-10-22T04:18:20;0.32;;;0.10;;
10092;SDS011;5085;48.092;11.484;2022-10-22T04:20:47;6.30;;;0.35;;
10092;SDS011;5085;48.092;11.484;2022-10-22T04:23:16;1.15;;;0.30;;
10092;SDS011;5085;48.092;11.484;2022-10-22T04:25:42;1.15;;;0.40;;
10092;SDS011;5085;48.092;11.484;2022-10-22T04:28:08;0.43;;;0.20;;
10092;SDS011;5085;48.092;11.484;2022-10-22T04:30:35;0.30;;;0.10;;
10092;SDS011;5085;48.092;11.484;2022-10-22T04:33:01;1.02;;;0.30;;
10092;SDS011;5085;48.092;11.484;2022-10-22T04:35:27;0.93;;;0.30;;
10092;SDS011;5085;48.092;11.484;2022-10-22T04:37:54;0.47;;;0.30;;
10092;SDS011;5085;48.092;11.484;2022-10-22T04:40:20;0.60;;;0.13;;
10092;SDS011;5085;48.092;11.484;2022-10-22T04:42:46;0.52;;;0.20;;
10092;SDS011;5085;48.092;11.484;2022-10-22T04:45:12;0.85;;;0.20;;
10092;SDS011;5085;48.092;11.484;2022-10-22T04:47:40;0.65;;;0.25;;
10092;SDS011;5085;48.092;11.484;2022-10-22T04:50:06;0.38;;;0.10;;
10092;SDS011;5085;48.092;11.484;2022-10-22T04:52:32;0.90;;;0.30;;
10092;SDS011;5085;48.092;11.484;2022-10-22T04:54:58;2.47;;;0.45;;
10092;SDS011;5085;48.092;11.484;2022-10-22T04:57:28;0.28;;;0.10;;
10092;SDS011;5085;48.092;11.484;2022-10-22T04:59:55;0.60;;;0.20;;
10092;SDS011;5085;48.092;11.484;2022-10-22T05:02:21;0.32;;;0.25;;
10092;SDS011;5085;48.092;11.484;2022-10-22T05:04:47;0.70;;;0.20;;
10092;SDS011;5085;48.092;11.484;2022-10-22T05:07:13;0.70;;;0.30;;
10092;SDS011;5085;48.092;11.484;2022-10-22T05:09:39;0.20;;;0.10;;
10092;SDS011;5085;48.092;11.484;2022-10-22T05:12:05;0.30;;;0.20;;
10092;SDS011;5085;48.092;11.484;2022-10-22T05:14:32;0.30;;;0.20;;
10092;SDS011;5085;48.092;11.484;2022-10-22T05:16:58;0.38;;;0.10;;
10092;SDS011;5085;48.092;11.484;2022-10-22T05:19:25;0.65;;;0.25;;
10092;SDS011;5085;48.092;11.484;2022-10-22T05:21:53;2.03;;;0.20;;
10092;SDS011;5085;48.092;11.484;2022-10-22T05:24:21;1.02;;;0.25;;
10092;SDS011;5085;48.092;11.484;2022-10-22T05:26:48;0.20;;;0.10;;
10092;SDS011;5085;48.092;11.484;2022-10-22T05:29:15;0.95;;;0.25;;
10092;SDS011;5085;48.092;11.484;2022-10-22T05:31:41;0.40;;;0.20;;
10092;SDS011;5085;48.092;11.484;2022-10-22T05:34:07;0.35;;;0.20;;
10092;SDS011;5085;48.092;11.484;2022-10-22T05:36:33;0.40;;;0.20;;
10092;SDS011;5085;48.092;11.484;2022-10-22T05:38:59;0.68;;;0.20;;
10092;SDS011;5085;48.092;11.484;2022-10-22T05:41:25;0.77;;;0.20;;
10092;SDS011;5085;48.092;11.484;2022-10-22T05:43:56;0.47;;;0.30;;
10092;SDS011;5085;48.092;11.484;2022-10-22T05:46:24;0.55;;;0.30;;
10092;SDS011;5085;48.092;11.484;2022-10-22T05:48:56;0.45;;;0.20;;
10092;SDS011;5085;48.092;11.484;2022-10-22T05:51:24;0.47;;;0.15;;
10092;SDS011;5085;48.092;11.484;2022-10-22T05:53:57;0.20;;;0.20;;
10092;SDS011;5085;48.092;11.484;2022-10-22T05:56:24;0.60;;;0.20;;
10092;SDS011;5085;48.092;11.484;2022-10-22T05:58:52;0.70;;;0.20;;
10092;SDS011;5085;48.092;11.484;2022-10-22T06:01:37;2.42;;;0.22;;
10092;SDS011;5085;48.092;11.484;2022-10-22T06:04:05;0.30;;;0.10;;
10092;SDS011;5085;48.092;11.484;2022-10-22T06:09:06;0.93;;;0.30;;
10092;SDS011;5085;48.092;11.484;2022-10-22T06:11:38;0.03;;;0.03;;
10092;SDS011;5085;48.092;11.484;2022-10-22T06:14:04;0.30;;;0.20;;
10092;SDS011;5085;48.092;11.484;2022-10-22T06:16:31;0.13;;;0.10;;
10092;SDS011;5085;48.092;11.484;2022-10-22T06:18:57;0.28;;;0.20;;
10092;SDS011;5085;48.092;11.484;2022-10-22T06:21:25;0.82;;;0.10;;
10092;SDS011;5085;48.092;11.484;2022-10-22T06:23:51;0.10;;;0.10;;
10092;SDS011;5085;48.092;11.484;2022-10-22T06:26:17;0.30;;;0.10;;
10092;SDS011;5085;48.092;11.484;2022-10-22T06:28:43;0.45;;;0.17;;
10092;SDS011;5085;48.092;11.484;2022-10-22T06:31:09;0.30;;;0.20;;
10092;SDS011;5085;48.092;11.484;2022-10-22T06:33:35;2.33;;;0.20;;
10092;SDS011;5085;48.092;11.484;2022-10-22T06:36:07;0.73;;;0.17;;
10092;SDS011;5085;48.092;11.484;2022-10-22T06:38:35;0.30;;;0.20;;
10092;SDS011;5085;48.092;11.484;2022-10-22T06:41:02;0.55;;;0.20;;
10092;SDS011;5085;48.092;11.484;2022-10-22T06:43:35;0.30;;;0.20;;
10092;SDS011;5085;48.092;11.484;2022-10-22T06:46:02;1.15;;;0.20;;
10092;SDS011;5085;48.092;11.484;2022-10-22T06:48:30;0.28;;;0.20;;
10092;SDS011;5085;48.092;11.484;2022-10-22T06:50:59;0.30;;;0.30;;
10092;SDS011;5085;48.092;11.484;2022-10-22T06:53:28;0.68;;;0.20;;
10092;SDS011;5085;48.092;11.484;2022-10-22T06:55:54;0.50;;;0.20;;
10092;SDS011;5085;48.092;11.484;2022-10-22T06:58:20;0.10;;;0.10;;
10092;SDS011;5085;48.092;11.484;2022-10-22T07:00:46;0.10;;;0.10;;
10092;SDS011;5085;48.092;11.484;2022-10-22T07:03:12;0.32;;;0.20;;
10092;SDS011;5085;48.092;11.484;2022-10-22T07:05:39;0.08;;;0.03;;
10092;SDS011;5085;48.092;11.484;2022-10-22T07:08:06;0.45;;;0.20;;
10092;SDS011;5085;48.092;11.484;2022-10-22T07:10:33;0.20;;;0.17;;
10092;SDS011;5085;48.092;11.484;2022-10-22T07:12:59;0.32;;;0.05;;
10092;SDS011;5085;48.092;11.484;2022-10-22T07:15:25;0.50;;;0.17;;
10092;SDS011;5085;48.092;11.484;2022-10-22T07:17:51;1.92;;;0.20;;
10092;SDS011;5085;48.092;11.484;2022-10-22T07:20:17;0.10;;;0.10;;
10092;SDS011;5085;48.092;11.484;2022-10-22T07:22:45;0.10;;;0.10;;
10092;SDS011;5085;48.092;11.484;2022-10-22T07:25:11;0.13;;;0.10;;
10092;SDS011;5085;48.092;11.484;2022-10-22T07:27:37;0.52;;;0.22;;
10092;SDS011;5085;48.092;11.484;2022-10-22T07:30:03;0.20;;;0.10;;
10092;SDS011;5085;48.092;11.484;2022-10-22T07:32:30;2.38;;;0.20;;
10092;SDS011;5085;48.092;11.484;2022-10-22T07:34:56;0.70;;;0.15;;
10092;SDS011;5085;48.092;11.484;2022-10-22T07:37:22;0.43;;;0.20;;
10092;SDS011;5085;48.092;11.484;2022-10-22T07:39:48;0.38;;;0.20;;
10092;SDS011;5085;48.092;11.484;2022-10-22T07:42:14;0.20;;;0.15;;
10092;SDS011;5085;48.092;11.484;2022-10-22T07:44:40;0.22;;;0.20;;
10092;SDS011;5085;48.092;11.484;2022-10-22T07:47:06;1.33;;;0.28;;
10092;SDS011;5085;48.092;11.484;2022-10-22T07:49:32;1.25;;;0.20;;
10092;SDS011;5085;48.092;11.484;2022-10-22T07:51:58;0.43;;;0.20;;
10092;SDS011;5085;48.092;11.484;2022-10-22T07:54:24;0.10;;;0.10;;
10092;SDS011;5085;48.092;11.484;2022-10-22T07:56:50;0.17;;;0.10;;
10092;SDS011;5085;48.092;11.484;2022-10-22T07:59:16;0.57;;;0.22;;
10092;SDS011;5085;48.092;11.484;2022-10-22T08:01:42;1.02;;;0.40;;
10092;SDS011;5085;48.092;11.484;2022-10-22T08:04:08;0.50;;;0.28;;
10092;SDS011;5085;48.092;11.484;2022-10-22T08:06:34;0.30;;;0.20;;
10092;SDS011;5085;48.092;11.484;2022-10-22T08:09:01;1.00;;;0.20;;
10092;SDS011;5085;48.092;11.484;2022-10-22T08:11:27;0.45;;;0.30;;
10092;SDS011;5085;48.092;11.484;2022-10-22T08:13:53;0.65;;;0.20;;
10092;SDS011;5085;48.092;11.484;2022-10-22T08:16:19;1.33;;;0.40;;
10092;SDS011;5085;48.092;11.484;2022-10-22T08:18:45;0.30;;;0.20;;
10092;SDS011;5085;48.092;11.484;2022-10-22T08:21:11;0.43;;;0.20;;
10092;SDS011;5085;48.092;11.484;2022-10-22T08:23:38;0.60;;;0.28;;
10092;SDS011;5085;48.092;11.484;2022-10-22T08:26:04;1.15;;;0.38;;
10092;SDS011;5085;48.092;11.484;2022-10-22T08:28:30;0.52;;;0.20;;
10092;SDS011;5085;48.092;11.484;2022-10-22T08:31:00;0.40;;;0.22;;
10092;SDS011;5085;48.092;11.484;2022-10-22T08:33:26;0.65;;;0.22;;
10092;SDS011;5085;48.092;11.484;2022-10-22T08:35:52;0.57;;;0.20;;
10092;SDS011;5085;48.092;11.484;2022-10-22T08:38:18;0.68;;;0.22;;
10092;SDS011;5085;48.092;11.484;2022-10-22T08:40:49;3.35;;;0.43;;
10092;SDS011;5085;48.092;11.484;2022-10-22T08:43:33;0.75;;;0.30;;
10092;SDS011;5085;48.092;11.484;2022-10-22T08:46:15;1.05;;;0.40;;
10092;SDS011;5085;48.092;11.484;2022-10-22T08:49:02;1.60;;;0.30;;
10092;SDS011;5085;48.092;11.484;2022-10-22T08:51:31;0.70;;;0.30;;
10092;SDS011;5085;48.092;11.484;2022-10-22T08:54:10;2.92;;;0.20;;
10092;SDS011;5085;48.092;11.484;2022-10-22T08:59:45;0.75;;;0.25;;
10092;SDS011;5085;48.092;11.484;2022-10-22T09:02:31;0.10;;;0.10;;
10092;SDS011;5085;48.092;11.484;2022-10-22T09:05:05;0.35;;;0.20;;
10092;SDS011;5085;48.092;11.484;2022-10-22T09:07:52;0.10;;;0.10;;
10092;SDS011;5085;48.092;11.484;2022-10-22T09:10:21;1.10;;;0.25;;
10092;SDS011;5085;48.092;11.484;2022-10-22T09:12:51;2.70;;;0.40;;
10092;SDS011;5085;48.092;11.484;2022-10-22T09:15:18;0.28;;;0.20;;
10092;SDS011;5085;48.092;11.484;2022-10-22T09:20:49;1.83;;;0.52;;
10092;SDS011;5085;48.092;11.484;2022-10-22T09:23:28;1.60;;;0.43;;
10092;SDS011;5085;48.092;11.484;2022-10-22T09:26:03;0.68;;;0.30;;
10092;SDS011;5085;48.092;11.484;2022-10-22T09:28:36;0.65;;;0.25;;
10092;SDS011;5085;48.092;11.484;2022-10-22T09:31:07;0.93;;;0.35;;
10092;SDS011;5085;48.092;11.484;2022-10-22T09:33:38;0.40;;;0.22;;
10092;SDS011;5085;48.092;11.484;2022-10-22T09:36:06;0.85;;;0.30;;
10092;SDS011;5085;48.092;11.484;2022-10-22T09:38:33;1.75;;;0.32;;
10092;SDS011;5085;48.092;11.484;2022-10-22T09:41:04;1.33;;;0.30;;
10092;SDS011;5085;48.092;11.484;2022-10-22T09:43:32;0.68;;;0.30;;
10092;SDS011;5085;48.092;11.484;2022-10-22T09:46:02;0.80;;;0.30;;
10092;SDS011;5085;48.092;11.484;2022-10-22T09:48:31;0.63;;;0.20;;
10092;SDS011;5085;48.092;11.484;2022-10-22T09:51:02;1.55;;;0.40;;
10092;SDS011;5085;48.092;11.484;2022-10-22T09:53:56;1.17;;;0.30;;
10092;SDS011;5085;48.092;11.484;2022-10-22T09:58:51;0.70;;;0.32;;
10092;SDS011;5085;48.092;11.484;2022-10-22T10:01:24;0.77;;;0.20;;
10092;SDS011;5085;48.092;11.484;2022-10-22T10:04:03;0.50;;;0.30;;
10092;SDS011;5085;48.092;11.484;2022-10-22T10:06:32;1.20;;;0.43;;
10092;SDS011;5085;48.092;11.484;2022-10-22T10:08:59;2.00;;;0.50;;
10092;SDS011;5085;48.092;11.484;2022-10-22T10:11:36;0.70;;;0.35;;
10092;SDS011;5085;48.092;11.484;2022-10-22T10:14:16;0.70;;;0.40;;
10092;SDS011;5085;48.092;11.484;2022-10-22T10:22:18;1.45;;;0.50;;
10092;SDS011;5085;48.092;11.484;2022-10-22T10:25:37;1.08;;;0.28;;
10092;SDS011;5085;48.092;11.484;2022-10-22T10:30:50;3.47;;;0.40;;
10092;SDS011;5085;48.092;11.484;2022-10-22T10:33:29;0.40;;;0.30;;
10092;SDS011;5085;48.092;11.484;2022-10-22T10:44:36;3.35;;;0.43;;
10092;SDS011;5085;48.092;11.484;2022-10-22T10:49:43;5.00;;;0.50;;
10092;SDS011;5085;48.092;11.484;2022-10-22T10:54:56;0.90;;;0.30;;
10092;SDS011;5085;48.092;11.484;2022-10-22T11:00:44;0.65;;;0.30;;
10092;SDS011;5085;48.092;11.484;2022-10-22T11:05:59;1.42;;;0.30;;
10092;SDS011;5085;48.092;11.484;2022-10-22T11:08:33;1.10;;;0.22;;
10092;SDS011;5085;48.092;11.484;2022-10-22T11:11:04;0.90;;;0.30;;
10092;SDS011;5085;48.092;11.484;2022-10-22T11:13:38;1.38;;;0.28;;
10092;SDS011;5085;48.092;11.484;2022-10-22T11:16:13;0.93;;;0.30;;
10092;SDS011;5085;48.092;11.484;2022-10-22T11:19:06;0.60;;;0.30;;
10092;SDS011;5085;48.092;11.484;2022-10-22T11:24:22;1.27;;;0.30;;
10092;SDS011;5085;48.092;11.484;2022-10-22T11:26:56;1.65;;;0.20;;
10092;SDS011;5085;48.092;11.484;2022-10-22T11:29:30;0.35;;;0.25;;
10092;SDS011;5085;48.092;11.484;2022-10-22T11:32:04;0.50;;;0.17;;
10092;SDS011;5085;48.092;11.484;2022-10-22T11:34:39;0.25;;;0.10;;
10092;SDS011;5085;48.092;11.484;2022-10-22T11:37:11;0.47;;;0.20;;
10092;SDS011;5085;48.092;11.484;2022-10-22T11:39:49;0.32;;;0.10;;
10092;SDS011;5085;48.092;11.484;2022-10-22T11:42:19;0.22;;;0.10;;
10092;SDS011;5085;48.092;11.484;2022-10-22T11:47:26;1.35;;;0.30;;
10092;SDS011;5085;48.092;11.484;2022-10-22T11:49:57;0.75;;;0.20;;
10092;SDS011;5085;48.092;11.484;2022-10-22T11:53:03;0.30;;;0.10;;
10092;SDS011;5085;48.092;11.484;2022-10-22T11:55:42;0.65;;;0.20;;
10092;SDS011;5085;48.092;11.484;2022-10-22T11:58:33;0.88;;;0.20;;
10092;SDS011;5085;48.092;11.484;2022-10-22T12:03:42;0.88;;;0.20;;
10092;SDS011;5085;48.092;11.484;2022-10-22T12:08:45;1.80;;;0.20;;
10092;SDS011;5085;48.092;11.484;2022-10-22T12:11:26;1.63;;;0.20;;
10092;SDS011;5085;48.092;11.484;2022-10-22T12:14:20;1.35;;;0.20;;
10092;SDS011;5085;48.092;11.484;2022-10-22T12:19:25;0.50;;;0.20;;
10092;SDS011;5085;48.092;11.484;2022-10-22T12:21:56;0.28;;;0.13;;
10092;SDS011;5085;48.092;11.484;2022-10-22T12:24:45;0.45;;;0.20;;
10092;SDS011;5085;48.092;11.484;2022-10-22T12:29:54;1.58;;;0.20;;
10092;SDS011;5085;48.092;11.484;2022-10-22T12:32:21;0.28;;;0.20;;
10092;SDS011;5085;48.092;11.484;2022-10-22T12:34:51;1.08;;;0.38;;
10092;SDS011;5085;48.092;11.484;2022-10-22T12:37:17;0.15;;;0.10;;
10092;SDS011;5085;48.092;11.484;2022-10-22T12:39:44;1.10;;;0.28;;
10092;SDS011;5085;48.092;11.484;2022-10-22T12:42:14;0.32;;;0.13;;
10092;SDS011;5085;48.092;11.484;2022-10-22T12:44:42;2.28;;;0.30;;
10092;SDS011;5085;48.092;11.484;2022-10-22T12:47:11;0.85;;;0.32;;
10092;SDS011;5085;48.092;11.484;2022-10-22T12:49:41;0.47;;;0.30;;
10092;SDS011;5085;48.092;11.484;2022-10-22T12:52:15;1.58;;;0.30;;
10092;SDS011;5085;48.092;11.484;2022-10-22T12:54:45;0.47;;;0.20;;
10092;SDS011;5085;48.092;11.484;2022-10-22T12:57:15;2.08;;;0.13;;
10092;SDS011;5085;48.092;11.484;2022-10-22T12:59:43;1.23;;;0.20;;
10092;SDS011;5085;48.092;11.484;2022-10-22T13:07:41;0.25;;;0.20;;
10092;SDS011;5085;48.092;11.484;2022-10-22T13:10:13;0.73;;;0.30;;
10092;SDS011;5085;48.092;11.484;2022-10-22T13:13:00;1.00;;;0.28;;
10092;SDS011;5085;48.092;11.484;2022-10-22T13:18:01;1.27;;;0.25;;
10092;SDS011;5085;48.092;11.484;2022-10-22T13:21:01;0.30;;;0.20;;
10092;SDS011;5085;48.092;11.484;2022-10-22T13:23:29;0.95;;;0.20;;
10092;SDS011;5085;48.092;11.484;2022-10-22T13:28:24;0.57;;;0.22;;
10092;SDS011;5085;48.092;11.484;2022-10-22T13:30:52;1.27;;;0.20;;
10092;SDS011;5085;48.092;11.484;2022-10-22T13:33:27;2.22;;;0.32;;
10092;SDS011;5085;48.092;11.484;2022-10-22T13:35:57;0.82;;;0.13;;
10092;SDS011;5085;48.092;11.484;2022-10-22T13:38:25;2.60;;;0.50;;
10092;SDS011;5085;48.092;11.484;2022-10-22T13:40:52;1.52;;;0.20;;
10092;SDS011;5085;48.092;11.484;2022-10-22T13:43:19;0.22;;;0.10;;
10092;SDS011;5085;48.092;11.484;2022-10-22T13:45:45;0.90;;;0.35;;
10092;SDS011;5085;48.092;11.484;2022-10-22T13:48:14;0.98;;;0.38;;
10092;SDS011;5085;48.092;11.484;2022-10-22T13:50:43;0.68;;;0.30;;
10092;SDS011;5085;48.092;11.484;2022-10-22T13:53:14;0.57;;;0.30;;
10092;SDS011;5085;48.092;11.484;2022-10-22T13:55:42;0.47;;;0.30;;
10092;SDS011;5085;48.092;11.484;2022-10-22T13:58:10;0.65;;;0.30;;
10092;SDS011;5085;48.092;11.484;2022-10-22T14:00:38;0.88;;;0.30;;
10092;SDS011;5085;48.092;11.484;2022-10-22T14:03:09;1.33;;;0.20;;
10092;SDS011;5085;48.092;11.484;2022-10-22T14:05:36;2.20;;;0.50;;
10092;SDS011;5085;48.092;11.484;2022-10-22T14:08:02;1.30;;;0.30;;
10092;SDS011;5085;48.092;11.484;2022-10-22T14:10:28;1.50;;;0.32;;
10092;SDS011;5085;48.092;11.484;2022-10-22T14:12:54;2.38;;;0.30;;
10092;SDS011;5085;48.092;11.484;2022-10-22T14:15:21;0.55;;;0.20;;
10092;SDS011;5085;48.092;11.484;2022-10-22T14:17:54;0.90;;;0.38;;
10092;SDS011;5085;48.092;11.484;2022-10-22T14:20:23;1.48;;;0.30;;
10092;SDS011;5085;48.092;11.484;2022-10-22T14:22:52;1.63;;;0.30;;
10092;SDS011;5085;48.092;11.484;2022-10-22T14:25:20;0.80;;;0.32;;
10092;SDS011;5085;48.092;11.484;2022-10-22T14:27:47;1.17;;;0.30;;
10092;SDS011;5085;48.092;11.484;2022-10-22T14:30:18;2.85;;;0.40;;
10092;SDS011;5085;48.092;11.484;2022-10-22T14:32:48;0.47;;;0.20;;
10092;SDS011;5085;48.092;11.484;2022-10-22T14:35:18;1.30;;;0.30;;
10092;SDS011;5085;48.092;11.484;2022-10-22T14:37:46;1.23;;;0.30;;
10092;SDS011;5085;48.092;11.484;2022-10-22T14:40:13;0.90;;;0.43;;
10092;SDS011;5085;48.092;11.484;2022-10-22T14:42:44;2.72;;;0.43;;
10092;SDS011;5085;48.092;11.484;2022-10-22T14:45:21;0.88;;;0.22;;
10092;SDS011;5085;48.092;11.484;2022-10-22T14:47:49;1.10;;;0.40;;
10092;SDS011;5085;48.092;11.484;2022-10-22T14:50:16;1.00;;;0.30;;
10092;SDS011;5085;48.092;11.484;2022-10-22T14:52:43;3.13;;;0.38;;
10092;SDS011;5085;48.092;11.484;2022-10-22T14:55:10;1.17;;;0.38;;
10092;SDS011;5085;48.092;11.484;2022-10-22T14:57:37;0.50;;;0.20;;
10092;SDS011;5085;48.092;11.484;2022-10-22T15:00:04;2.65;;;0.28;;
10092;SDS011;5085;48.092;11.484;2022-10-22T15:02:32;1.55;;;0.30;;
10092;SDS011;5085;48.092;11.484;2022-10-22T15:04:58;1.92;;;0.50;;
10092;SDS011;5085;48.092;11.484;2022-10-22T15:07:24;3.83;;;0.40;;
10092;SDS011;5085;48.092;11.484;2022-10-22T15:09:52;2.72;;;0.38;;
10092;SDS011;5085;48.092;11.484;2022-10-22T15:12:18;2.45;;;0.30;;
10092;SDS011;5085;48.092;11.484;2022-10-22T15:14:45;1.20;;;0.32;;
10092;SDS011;5085;48.092;11.484;2022-10-22T15:17:12;1.58;;;0.40;;
10092;SDS011;5085;48.092;11.484;2022-10-22T15:19:39;2.30;;;0.52;;
10092;SDS011;5085;48.092;11.484;2022-10-22T15:22:05;0.90;;;0.38;;
10092;SDS011;5085;48.092;11.484;2022-10-22T15:24:31;5.00;;;0.40;;
10092;SDS011;5085;48.092;11.484;2022-10-22T15:26:57;0.50;;;0.17;;
10092;SDS011;5085;48.092;11.484;2022-10-22T15:29:23;4.03;;;0.40;;
10092;SDS011;5085;48.092;11.484;2022-10-22T15:31:51;0.98;;;0.30;;
10092;SDS011;5085;48.092;11.484;2022-10-22T15:34:19;2.38;;;0.22;;
10092;SDS011;5085;48.092;11.484;2022-10-22T15:36:47;1.90;;;0.50;;
10092;SDS011;5085;48.092;11.484;2022-10-22T15:39:14;0.30;;;0.25;;
10092;SDS011;5085;48.092;11.484;2022-10-22T15:41:40;1.15;;;0.40;;
10092;SDS011;5085;48.092;11.484;2022-10-22T15:44:06;1.88;;;0.60;;
10092;SDS011;5085;48.092;11.484;2022-10-22T15:46:33;2.20;;;0.57;;
10092;SDS011;5085;48.092;11.484;2022-10-22T15:49:00;1.77;;;0.63;;
10092;SDS011;5085;48.092;11.484;2022-10-22T15:51:26;1.70;;;0.55;;
10092;SDS011;5085;48.092;11.484;2022-10-22T15:53:53;1.15;;;0.40;;
10092;SDS011;5085;48.092;11.484;2022-10-22T15:56:21;2.20;;;0.60;;
10092;SDS011;5085;48.092;11.484;2022-10-22T15:58:50;1.20;;;0.55;;
10092;SDS011;5085;48.092;11.484;2022-10-22T16:01:17;1.00;;;0.45;;
10092;SDS011;5085;48.092;11.484;2022-10-22T16:03:43;3.72;;;0.80;;
10092;SDS011;5085;48.092;11.484;2022-10-22T16:06:09;1.02;;;0.50;;
10092;SDS011;5085;48.092;11.484;2022-10-22T16:08:35;0.77;;;0.50;;
10092;SDS011;5085;48.092;11.484;2022-10-22T16:11:02;2.72;;;0.85;;
10092;SDS011;5085;48.092;11.484;2022-10-22T16:13:28;2.08;;;0.85;;
10092;SDS011;5085;48.092;11.484;2022-10-22T16:15:55;1.75;;;0.50;;
10092;SDS011;5085;48.092;11.484;2022-10-22T16:18:21;3.40;;;0.70;;
10092;SDS011;5085;48.092;11.484;2022-10-22T16:20:48;1.55;;;0.60;;
10092;SDS011;5085;48.092;11.484;2022-10-22T16:23:14;1.20;;;0.60;;
10092;SDS011;5085;48.092;11.484;2022-10-22T16:25:43;3.08;;;0.80;;
10092;SDS011;5085;48.092;11.484;2022-10-22T16:28:10;1.52;;;0.73;;
10092;SDS011;5085;48.092;11.484;2022-10-22T16:30:37;2.85;;;0.93;;
10092;SDS011;5085;48.092;11.484;2022-10-22T16:33:04;2.88;;;0.90;;
10092;SDS011;5085;48.092;11.484;2022-10-22T16:35:31;3.08;;;1.05;;